Time;durP1;ratioP1;P1;durP2;ratioP2;P2;SDS_P1;SDS_P2;PMS_P1;PMS_P2;Temp;Humidity;BMP_temperature;BMP_pressure;BME280_temperature;BME280_humidity;BME280_pressure;Samples;Min_cycle;Max_cycle;Signal;HPM_P1;HPM_P2
2021/12/29 00:01:27;;;;;;;2.33;1.20;;;;;;;5.00;98.49;96788.00;4090584;28;20047;-71
2021/12/29 00:03:28;;;;;;;2.63;1.20;;;;;;;5.04;97.78;96793.50;4092342;28;20135;-72
2021/12/29 00:05:29;;;;;;;2.05;1.27;;;;;;;5.02;97.29;96802.09;4090124;28;20047;-72
2021/12/29 00:07:29;;;;;;;5.65;1.45;;;;;;;5.06;96.61;96807.63;4093026;28;20478;-72
2021/12/29 00:09:32;;;;;;;1.13;0.90;;;;;;;5.07;96.79;96807.22;4091881;28;20533;-71
2021/12/29 00:11:37;;;;;;;2.58;1.30;;;;;;;5.08;96.17;96810.75;4088709;28;20043;-71
2021/12/29 00:13:38;;;;;;;1.58;1.13;;;;;;;5.03;96.33;96800.94;4097533;28;20047;-72
2021/12/29 00:15:38;;;;;;;1.27;0.90;;;;;;;5.13;94.89;96812.34;4093396;28;20043;-72
2021/12/29 00:17:42;;;;;;;0.90;0.88;;;;;;;5.07;95.40;96811.94;4091573;28;20372;-72
2021/12/29 00:19:42;;;;;;;2.90;1.30;;;;;;;5.08;94.70;96819.75;4091190;28;20130;-71
2021/12/29 00:21:42;;;;;;;2.17;1.15;;;;;;;5.07;95.20;96817.41;4091628;28;20497;-71
2021/12/29 00:23:43;;;;;;;3.47;1.10;;;;;;;5.09;95.14;96823.28;4090754;28;20043;-71
2021/12/29 00:25:43;;;;;;;1.92;1.10;;;;;;;4.97;95.87;96818.13;4092760;28;20082;-71
2021/12/29 00:27:44;;;;;;;3.60;1.13;;;;;;;4.96;95.28;96825.53;4091323;28;20231;-72
2021/12/29 00:29:44;;;;;;;2.20;1.13;;;;;;;4.90;96.31;96821.59;4091900;28;20453;-71
2021/12/29 00:31:44;;;;;;;3.08;0.98;;;;;;;4.86;96.16;96820.00;4092386;28;20050;-72
2021/12/29 00:33:45;;;;;;;1.70;0.93;;;;;;;4.81;96.74;96834.06;4087803;28;20051;-72
2021/12/29 00:35:47;;;;;;;2.33;1.10;;;;;;;4.79;96.75;96826.19;4093309;28;20318;-72
2021/12/29 00:37:47;;;;;;;2.72;0.95;;;;;;;4.75;97.22;96828.16;4095333;28;20055;-71
2021/12/29 00:39:48;;;;;;;1.48;0.90;;;;;;;4.72;97.21;96834.41;4092644;28;20431;-72
2021/12/29 00:41:48;;;;;;;1.48;0.80;;;;;;;4.69;97.45;96835.91;4094614;28;20360;-72
2021/12/29 00:43:49;;;;;;;1.73;1.00;;;;;;;4.65;97.98;96842.56;4095386;28;20043;-72
2021/12/29 00:45:50;;;;;;;2.08;0.90;;;;;;;4.68;97.72;96845.31;4094487;28;20475;-72
2021/12/29 00:47:52;;;;;;;1.97;1.00;;;;;;;4.64;97.96;96851.94;4095234;28;20049;-72
2021/12/29 00:49:53;;;;;;;1.33;0.90;;;;;;;4.62;98.56;96848.75;4195280;28;20047;-72
2021/12/29 00:51:54;;;;;;;1.48;1.10;;;;;;;4.58;98.66;96851.50;4092290;28;20048;-71
2021/12/29 00:53:54;;;;;;;1.00;0.85;;;;;;;4.52;99.12;96855.72;4095018;28;20115;-72
2021/12/29 00:55:55;;;;;;;1.50;0.90;;;;;;;4.46;98.19;96866.22;4091964;28;20054;-72
2021/12/29 00:57:55;;;;;;;1.77;1.13;;;;;;;4.48;98.47;96871.34;4089952;28;20475;-72
2021/12/29 00:59:56;;;;;;;1.75;1.00;;;;;;;4.49;99.03;96890.16;4093988;28;20035;-72
2021/12/29 01:01:56;;;;;;;1.42;1.05;;;;;;;4.45;99.47;96899.47;4090235;28;20102;-72
2021/12/29 01:03:57;;;;;;;0.90;0.80;;;;;;;4.46;99.03;96910.06;4090221;28;20051;-71
2021/12/29 01:05:58;;;;;;;1.70;1.00;;;;;;;4.40;99.69;96908.84;4091116;28;20089;-71
2021/12/29 01:07:58;;;;;;;1.45;0.98;;;;;;;4.42;99.88;96917.47;4089578;28;20577;-71
2021/12/29 01:09:59;;;;;;;2.95;0.85;;;;;;;4.38;99.98;96916.63;4094119;28;20055;-71
2021/12/29 01:12:00;;;;;;;0.75;0.75;;;;;;;4.36;100.00;96916.22;4089997;28;20051;-72
2021/12/29 01:14:00;;;;;;;0.80;0.80;;;;;;;4.35;100.00;96922.06;4089888;28;20047;-72
2021/12/29 01:18:06;;;;;;;2.28;1.00;;;;;;;4.32;100.00;96926.34;4092019;28;20034;-72
2021/12/29 01:20:07;;;;;;;1.58;0.90;;;;;;;4.33;100.00;96922.44;4090581;28;20035;-72
2021/12/29 01:22:07;;;;;;;1.70;1.00;;;;;;;4.33;100.00;96922.44;4102051;28;20093;-72
2021/12/29 01:24:09;;;;;;;1.67;0.80;;;;;;;4.31;100.00;96930.25;4093966;28;20033;-72
2021/12/29 01:26:09;;;;;;;0.80;0.77;;;;;;;4.30;100.00;96927.88;4095820;28;20410;-71
2021/12/29 01:28:09;;;;;;;1.13;0.85;;;;;;;4.29;100.00;96932.56;4090523;28;20581;-72
2021/12/29 01:30:11;;;;;;;1.70;0.98;;;;;;;4.35;100.00;96927.53;4090454;28;20051;-72
2021/12/29 01:32:11;;;;;;;2.28;0.95;;;;;;;4.31;100.00;96935.72;4089306;28;20063;-71
2021/12/29 01:34:12;;;;;;;1.02;0.80;;;;;;;4.36;100.00;96940.06;4090071;28;20400;-72
2021/12/29 01:36:13;;;;;;;1.88;1.00;;;;;;;4.35;100.00;96944.75;4090911;28;20353;-72
2021/12/29 01:38:13;;;;;;;1.80;1.08;;;;;;;4.31;100.00;96946.69;4089038;28;20246;-72
2021/12/29 01:40:16;;;;;;;2.15;0.70;;;;;;;4.29;100.00;96959.16;4088720;28;20047;-71
2021/12/29 01:42:17;;;;;;;2.53;0.95;;;;;;;4.35;100.00;96960.41;4090590;28;20306;-72
2021/12/29 01:44:21;;;;;;;1.92;1.23;;;;;;;4.32;99.55;96964.69;4095983;28;20035;-72
2021/12/29 01:46:21;;;;;;;2.75;1.42;;;;;;;4.26;100.00;96963.44;4088395;28;20481;-71
2021/12/29 01:48:22;;;;;;;2.70;1.20;;;;;;;4.21;100.00;96956.31;4089875;28;20452;-72
2021/12/29 01:50:22;;;;;;;1.38;1.10;;;;;;;4.17;100.00;96962.94;4096278;28;20054;-72
2021/12/29 01:52:27;;;;;;;1.63;1.08;;;;;;;4.11;100.00;96956.19;4093586;28;20134;-71
2021/12/29 01:54:34;;;;;;;1.65;1.00;;;;;;;4.07;100.00;96963.59;4098359;28;20055;-72
2021/12/29 01:56:34;;;;;;;1.42;1.10;;;;;;;4.03;100.00;96963.53;4089965;28;20103;-72
2021/12/29 01:58:35;;;;;;;2.63;1.10;;;;;;;4.03;100.00;96962.75;4089714;28;20118;-72
2021/12/29 02:00:37;;;;;;;0.77;0.77;;;;;;;3.99;100.00;96961.94;4090097;28;20051;-72
2021/12/29 02:02:38;;;;;;;1.45;1.00;;;;;;;4.01;100.00;96971.34;4094371;28;20395;-72
2021/12/29 02:04:38;;;;;;;2.05;0.95;;;;;;;4.03;100.00;96971.75;4089588;28;20040;-72
2021/12/29 02:06:39;;;;;;;1.45;1.05;;;;;;;4.03;100.00;96976.44;4089543;28;20208;-71
2021/12/29 02:08:39;;;;;;;2.08;0.98;;;;;;;4.06;100.00;96990.19;4089548;28;20054;-72
2021/12/29 02:10:45;;;;;;;1.00;0.90;;;;;;;4.09;100.00;96983.16;4096452;28;20483;-72
2021/12/29 02:12:45;;;;;;;1.25;0.90;;;;;;;4.09;100.00;96983.16;4089099;28;20389;-72
2021/12/29 02:14:46;;;;;;;0.95;0.88;;;;;;;4.06;100.00;96978.44;4091974;28;20083;-72
2021/12/29 02:16:46;;;;;;;2.63;1.00;;;;;;;4.10;100.00;96993.72;4089759;28;20051;-72
2021/12/29 02:18:54;;;;;;;0.80;0.80;;;;;;;4.12;100.00;96996.88;4091568;28;20525;-72
2021/12/29 02:20:55;;;;;;;1.67;0.90;;;;;;;4.19;100.00;97002.44;4102337;28;20505;-72
2021/12/29 02:23:13;;;;;;;1.55;0.98;;;;;;;4.20;100.00;97011.44;4094871;28;20047;-72
2021/12/29 02:27:18;;;;;;;1.40;1.10;;;;;;;4.21;100.00;97005.59;4089233;28;20054;-72
2021/12/29 02:29:18;;;;;;;3.55;1.17;;;;;;;4.22;100.00;97009.94;4089013;28;20138;-71
2021/12/29 02:31:18;;;;;;;2.05;1.25;;;;;;;4.23;100.00;97018.94;4090392;28;20570;-72
2021/12/29 02:33:19;;;;;;;1.30;1.20;;;;;;;4.23;100.00;97018.94;4089980;28;20082;-72
2021/12/29 02:35:19;;;;;;;3.08;1.45;;;;;;;4.23;100.00;97027.16;4091994;28;20047;-72
2021/12/29 02:37:22;;;;;;;5.40;1.20;;;;;;;4.27;100.00;97035.41;4096194;28;20032;-72
2021/12/29 02:39:23;;;;;;;1.60;1.30;;;;;;;4.32;100.00;97030.41;4090852;28;20044;-71
2021/12/29 02:41:25;;;;;;;1.33;1.02;;;;;;;4.35;100.00;97037.84;4093501;28;20625;-72
2021/12/29 02:43:26;;;;;;;;;;;;;;;4.41;100.00;97038.31;4089452;28;20178;-72
2021/12/29 02:45:27;;;;;;;1.52;0.90;;;;;;;4.51;100.00;97043.13;4088992;28;20408;-72
2021/12/29 02:47:27;;;;;;;2.13;1.10;;;;;;;4.51;100.00;97049.41;4088614;28;20094;-71
2021/12/29 02:49:27;;;;;;;1.73;1.10;;;;;;;4.55;100.00;97049.47;4089027;28;20901;-71
2021/12/29 02:51:30;;;;;;;1.23;0.95;;;;;;;4.51;100.00;97056.84;4089309;28;20406;-71
2021/12/29 02:53:32;;;;;;;1.10;0.90;;;;;;;4.53;100.00;97059.19;4091477;28;20192;-71
2021/12/29 02:55:32;;;;;;;1.10;1.00;;;;;;;4.57;100.00;97058.09;4089887;28;20564;-71
2021/12/29 02:57:32;;;;;;;2.58;1.00;;;;;;;4.64;100.00;97063.66;4087300;28;20463;-71
2021/12/29 02:59:33;;;;;;;2.40;1.05;;;;;;;4.65;100.00;97062.50;4091345;28;20352;-72
2021/12/29 03:01:33;;;;;;;1.92;1.20;;;;;;;4.62;100.00;97078.88;4092735;28;20522;-72
2021/12/29 03:03:36;;;;;;;1.65;0.93;;;;;;;4.70;100.00;97088.75;4088775;28;20497;-71
2021/12/29 03:05:37;;;;;;;1.77;1.10;;;;;;;4.71;100.00;97093.06;4089277;28;20410;-71
2021/12/29 03:07:37;;;;;;;1.48;1.20;;;;;;;4.70;100.00;97100.50;4088485;28;20059;-71
2021/12/29 03:09:37;;;;;;;1.33;1.08;;;;;;;4.68;100.00;97099.31;4091059;28;20291;-72
2021/12/29 03:11:40;;;;;;;3.00;1.02;;;;;;;4.64;100.00;97098.50;4090639;28;20548;-72
2021/12/29 03:13:41;;;;;;;3.80;0.95;;;;;;;4.64;100.00;97093.00;4088716;28;20043;-71
2021/12/29 03:15:42;;;;;;;2.17;1.10;;;;;;;4.61;100.00;97091.00;4087998;28;20036;-72
2021/12/29 03:17:42;;;;;;;0.80;0.80;;;;;;;4.64;100.00;97095.75;4088946;28;20078;-72
2021/12/29 03:19:42;;;;;;;2.10;1.10;;;;;;;4.62;100.00;97098.03;4088989;28;20138;-72
2021/12/29 03:21:44;;;;;;;1.48;0.98;;;;;;;4.64;100.00;97090.28;4091814;28;20521;-72
2021/12/29 03:23:46;;;;;;;1.27;1.17;;;;;;;4.64;100.00;97087.53;4089404;28;20361;-71
2021/12/29 03:25:48;;;;;;;3.90;1.55;;;;;;;4.62;100.00;97089.81;4094824;28;20108;-72
2021/12/29 03:27:49;;;;;;;1.55;1.08;;;;;;;4.61;100.00;97094.53;4087709;28;20120;-71
2021/12/29 03:29:49;;;;;;;0.80;0.80;;;;;;;4.61;100.00;97091.78;4092690;28;20081;-71
2021/12/29 03:31:50;;;;;;;1.23;0.93;;;;;;;4.59;100.00;97088.63;4089063;28;20059;-71
2021/12/29 03:33:51;;;;;;;0.80;0.80;;;;;;;4.57;100.00;97095.66;4090061;28;20046;-72
2021/12/29 03:35:57;;;;;;;1.30;0.80;;;;;;;4.63;100.00;97102.38;4088924;28;20055;-71
2021/12/29 03:37:59;;;;;;;0.70;0.70;;;;;;;4.74;100.00;97100.56;4088457;28;20292;-72
2021/12/29 03:40:00;;;;;;;1.25;0.70;;;;;;;4.74;100.00;97103.31;4091670;28;20130;-72
2021/12/29 03:42:00;;;;;;;0.57;0.57;;;;;;;4.76;100.00;97107.25;4088836;28;20089;-72
2021/12/29 03:44:01;;;;;;;0.50;0.50;;;;;;;4.72;100.00;97108.38;4087569;28;20051;-72
2021/12/29 03:46:04;;;;;;;0.70;0.60;;;;;;;4.70;100.00;97105.97;4088991;28;20034;-72
2021/12/29 03:48:06;;;;;;;0.50;0.50;;;;;;;4.72;100.00;97100.16;4087083;28;20043;-72
2021/12/29 03:50:07;;;;;;;0.50;0.50;;;;;;;4.76;100.00;97101.75;4088426;28;20035;-72
2021/12/29 03:52:07;;;;;;;0.50;0.50;;;;;;;4.76;100.00;97107.25;4088931;28;20505;-72
2021/12/29 03:54:08;;;;;;;0.50;0.50;;;;;;;4.82;100.00;97113.19;4088553;28;20031;-71
2021/12/29 03:56:08;;;;;;;0.50;0.50;;;;;;;4.85;100.00;97111.66;4089041;28;20035;-71
2021/12/29 03:58:10;;;;;;;0.52;0.52;;;;;;;4.86;100.00;97113.22;4096223;28;20035;-72
2021/12/29 04:00:14;;;;;;;0.85;0.80;;;;;;;4.90;100.00;97119.53;4100915;28;20039;-71
2021/12/29 04:02:15;;;;;;;0.50;0.50;;;;;;;4.90;100.00;97119.53;4087345;28;20350;-72
2021/12/29 04:04:15;;;;;;;0.57;0.57;;;;;;;4.93;100.00;97121.53;4089423;28;20417;-72
2021/12/29 04:06:18;;;;;;;0.50;0.50;;;;;;;4.94;100.00;97123.88;4088575;28;20546;-72
2021/12/29 04:08:19;;;;;;;0.50;0.50;;;;;;;4.98;100.00;97126.69;4087069;28;20113;-72
2021/12/29 04:10:20;;;;;;;0.40;0.40;;;;;;;4.94;100.00;97125.84;4091039;28;20564;-71
2021/12/29 04:12:21;;;;;;;0.50;0.50;;;;;;;5.00;100.00;97124.34;4088541;28;20045;-71
2021/12/29 04:14:25;;;;;;;1.08;0.50;;;;;;;4.99;100.00;97137.28;4088694;28;20495;-72
2021/12/29 04:16:26;;;;;;;0.47;0.47;;;;;;;4.98;100.00;97132.16;4087034;28;20066;-71
2021/12/29 04:18:26;;;;;;;0.55;0.50;;;;;;;4.97;100.00;97136.88;4088585;28;20051;-72
2021/12/29 04:22:51;;;;;;;0.50;0.50;;;;;;;4.99;100.00;97145.50;4087950;28;20556;-72
2021/12/29 04:24:51;;;;;;;0.50;0.50;;;;;;;4.95;100.00;97144.66;4091418;28;20040;-72
2021/12/29 04:26:52;;;;;;;0.50;0.50;;;;;;;4.94;100.00;97143.06;4087151;28;20252;-72
2021/12/29 04:28:52;;;;;;;0.50;0.50;;;;;;;4.95;100.00;97143.88;4088066;28;20078;-72
2021/12/29 04:30:56;;;;;;;2.85;0.50;;;;;;;4.91;100.00;97141.09;4088289;28;20051;-72
2021/12/29 04:32:56;;;;;;;0.40;0.40;;;;;;;4.96;100.00;97150.91;4088000;28;20392;-72
2021/12/29 04:34:57;;;;;;;0.50;0.50;;;;;;;4.95;100.00;97152.88;4087708;28;20479;-71
2021/12/29 04:36:57;;;;;;;0.50;0.50;;;;;;;4.93;100.00;97154.41;4087650;28;20055;-72
2021/12/29 04:38:58;;;;;;;0.50;0.50;;;;;;;4.92;100.00;97164.59;4088035;28;20447;-72
2021/12/29 04:40:59;;;;;;;0.50;0.50;;;;;;;4.93;100.00;97162.63;4088343;28;20043;-72
2021/12/29 04:43:00;;;;;;;0.52;0.50;;;;;;;4.93;100.00;97159.91;4087088;28;20351;-72
2021/12/29 04:45:00;;;;;;;0.40;0.40;;;;;;;4.89;100.00;97162.59;4089582;28;20043;-72
2021/12/29 04:47:01;;;;;;;0.50;0.50;;;;;;;4.90;100.00;97163.41;4087890;28;20043;-72
2021/12/29 04:49:03;;;;;;;0.50;0.50;;;;;;;4.87;100.00;97167.66;4091945;28;20261;-72
2021/12/29 04:51:11;;;;;;;0.70;0.70;;;;;;;4.90;100.00;97169.66;4088069;28;20087;-72
2021/12/29 04:53:12;;;;;;;0.60;0.60;;;;;;;4.93;100.00;97176.34;4091088;28;20131;-72
2021/12/29 04:55:12;;;;;;;0.65;0.65;;;;;;;4.92;100.00;97178.31;4090822;28;20063;-72
2021/12/29 04:57:15;;;;;;;0.57;0.57;;;;;;;4.97;100.00;97185.41;4085909;28;20299;-72
2021/12/29 04:59:16;;;;;;;0.60;0.60;;;;;;;4.97;100.00;97191.69;4087353;28;20311;-72
2021/12/29 05:01:16;;;;;;;0.63;0.50;;;;;;;4.95;100.00;97180.28;4088421;28;20047;-72
2021/12/29 05:03:17;;;;;;;0.50;0.50;;;;;;;5.05;100.00;97193.34;4088594;28;20066;-72
2021/12/29 05:05:37;;;;;;;1.20;0.60;;;;;;;5.06;100.00;97194.16;4087967;28;20043;-71
2021/12/29 05:09:59;;;;;;;0.60;0.60;;;;;;;5.11;100.00;97193.78;4088572;28;20410;-72
2021/12/29 05:12:01;;;;;;;1.88;0.60;;;;;;;5.12;100.00;97198.13;4087387;28;20357;-72
2021/12/29 05:14:02;;;;;;;1.05;0.50;;;;;;;5.16;100.00;97201.69;4099635;28;20427;-72
2021/12/29 05:16:03;;;;;;;0.50;0.50;;;;;;;5.25;100.00;97198.66;4094539;28;20398;-72
2021/12/29 05:18:03;;;;;;;0.80;0.55;;;;;;;5.22;100.00;97210.41;4090413;28;20054;-72
2021/12/29 05:20:04;;;;;;;0.50;0.50;;;;;;;5.17;100.00;97206.03;4088961;28;20039;-72
2021/12/29 05:22:05;;;;;;;0.50;0.50;;;;;;;5.22;100.00;97207.66;4089632;28;20085;-72
2021/12/29 05:24:06;;;;;;;0.60;0.60;;;;;;;5.19;100.00;97213.88;4092136;28;20039;-72
2021/12/29 05:26:06;;;;;;;0.60;0.60;;;;;;;5.17;100.00;97208.75;4089681;28;20114;-72
2021/12/29 05:28:07;;;;;;;0.60;0.60;;;;;;;5.21;100.00;97212.34;4089861;28;20124;-72
2021/12/29 05:30:07;;;;;;;0.88;0.77;;;;;;;5.18;100.00;97210.34;4090495;28;20425;-72
2021/12/29 05:32:08;;;;;;;1.67;1.00;;;;;;;5.21;100.00;97219.75;4090497;28;20158;-71
2021/12/29 05:34:08;;;;;;;1.33;1.15;;;;;;;5.30;100.00;97225.78;4090090;28;20039;-71
2021/12/29 05:36:09;;;;;;;1.10;0.90;;;;;;;5.29;100.00;97222.22;4091108;28;20070;-71
2021/12/29 05:38:10;;;;;;;2.17;1.00;;;;;;;5.37;100.00;97234.06;4089484;28;20032;-71
2021/12/29 05:40:11;;;;;;;1.00;0.90;;;;;;;5.42;100.00;97233.75;4089075;28;20035;-72
2021/12/29 05:42:12;;;;;;;1.00;0.88;;;;;;;5.48;100.00;97243.22;4090810;28;20136;-72
2021/12/29 05:44:12;;;;;;;1.83;1.25;;;;;;;5.56;100.00;97247.63;4095304;28;20493;-72
2021/12/29 05:46:13;;;;;;;1.70;1.00;;;;;;;5.55;100.00;97253.50;4089413;28;20031;-71
2021/12/29 05:48:13;;;;;;;1.10;1.00;;;;;;;5.56;100.00;97255.88;4090075;28;20085;-72
2021/12/29 05:50:18;;;;;;;1.20;1.10;;;;;;;5.54;100.00;97254.63;4093540;28;20089;-72
2021/12/29 05:52:18;;;;;;;1.13;0.80;;;;;;;5.62;100.00;97257.09;4091377;28;20037;-72
2021/12/29 05:54:19;;;;;;;0.98;0.90;;;;;;;5.60;100.00;97273.13;4089656;28;20823;-72
2021/12/29 05:56:19;;;;;;;1.50;1.10;;;;;;;5.58;100.00;97267.25;4090103;28;20030;-72
2021/12/29 05:58:19;;;;;;;1.40;0.95;;;;;;;5.58;100.00;97264.50;4089309;28;20471;-72
2021/12/29 06:00:22;;;;;;;1.75;1.50;;;;;;;5.61;100.00;97271.19;4077885;28;20052;-72
2021/12/29 06:02:23;;;;;;;4.80;2.58;;;;;;;5.68;100.00;97274.00;4091747;28;20043;-72
2021/12/29 06:04:23;;;;;;;4.03;1.90;;;;;;;5.76;100.00;97283.91;4082108;28;20442;-72
2021/12/29 06:06:23;;;;;;;2.25;1.60;;;;;;;5.81;100.00;97278.09;4076814;28;20659;-72
2021/12/29 06:08:24;;;;;;;2.20;1.70;;;;;;;5.87;100.00;97276.56;4077552;28;20063;-72
2021/12/29 06:10:24;;;;;;;1.65;1.20;;;;;;;5.93;100.00;97279.81;4075947;28;20154;-72
2021/12/29 06:12:25;;;;;;;1.95;1.42;;;;;;;5.96;100.00;97283.75;4073999;28;20304;-72
2021/12/29 06:14:25;;;;;;;2.10;1.33;;;;;;;5.96;100.00;97279.06;4073721;28;20047;-72
2021/12/29 06:16:27;;;;;;;2.25;1.30;;;;;;;5.97;100.00;97286.13;4073593;28;20108;-72
2021/12/29 06:18:28;;;;;;;1.70;1.40;;;;;;;6.03;100.00;97290.09;4073136;28;20742;-72
2021/12/29 06:20:28;;;;;;;1.70;1.50;;;;;;;6.02;100.00;97288.53;4074025;28;20044;-71
2021/12/29 06:22:29;;;;;;;7.57;4.03;;;;;;;6.10;100.00;97289.38;4072925;28;20487;-72
2021/12/29 06:24:29;;;;;;;3.83;2.53;;;;;;;6.19;100.00;97306.34;4073457;28;20119;-72
2021/12/29 06:26:29;;;;;;;2.45;1.73;;;;;;;6.27;100.00;97299.75;4073908;28;20043;-71
2021/12/29 06:28:30;;;;;;;4.90;2.63;;;;;;;6.27;100.00;97304.47;4072890;28;20048;-72
2021/12/29 06:30:30;;;;;;;4.55;2.50;;;;;;;6.20;100.00;97307.91;4079052;28;20108;-72
2021/12/29 06:32:31;;;;;;;7.35;4.43;;;;;;;6.22;100.00;97313.06;4072309;28;20130;-71
2021/12/29 06:34:31;;;;;;;9.80;5.82;;;;;;;6.30;100.00;97314.72;4170973;28;20049;-72
2021/12/29 06:36:32;;;;;;;5.15;3.22;;;;;;;6.31;100.00;97325.31;4073674;28;20040;-72
2021/12/29 06:38:34;;;;;;;2.78;2.10;;;;;;;6.35;100.00;97328.88;4073146;28;21218;-72
2021/12/29 06:40:34;;;;;;;2.50;1.95;;;;;;;6.37;100.00;97331.25;4090830;28;20083;-72
2021/12/29 06:42:35;;;;;;;4.32;1.70;;;;;;;6.39;100.00;97331.66;4084258;28;20601;-72
2021/12/29 06:44:37;;;;;;;2.65;1.50;;;;;;;6.40;100.00;97336.78;4076055;28;20751;-72
2021/12/29 06:46:38;;;;;;;;;;;;;;;6.41;100.00;97343.06;4073144;28;20583;-72
2021/12/29 06:48:38;;;;;;;2.05;1.40;;;;;;;6.41;100.00;97345.81;4076160;28;19969;-72
2021/12/29 06:50:38;;;;;;;3.05;2.00;;;;;;;6.44;100.00;97336.81;4073105;28;20057;-72
2021/12/29 06:52:39;;;;;;;2.63;1.20;;;;;;;6.47;100.00;97342.34;4073039;28;20312;-72
2021/12/29 06:54:39;;;;;;;1.70;1.20;;;;;;;6.41;100.00;97345.81;4073803;28;20070;-72
2021/12/29 06:56:40;;;;;;;2.47;1.30;;;;;;;6.42;100.00;97350.13;4072581;28;20044;-72
2021/12/29 06:58:40;;;;;;;1.95;1.10;;;;;;;6.43;100.00;97357.22;4077714;28;20031;-72
2021/12/29 07:00:41;;;;;;;2.47;1.33;;;;;;;6.44;100.00;97358.78;4075864;28;20044;-72
2021/12/29 07:02:41;;;;;;;2.42;1.10;;;;;;;6.48;100.00;97363.16;4074083;28;20056;-72
2021/12/29 07:04:42;;;;;;;2.45;1.13;;;;;;;6.50;100.00;97370.22;4076358;28;20054;-72
2021/12/29 07:06:43;;;;;;;1.58;1.10;;;;;;;6.47;100.00;97380.81;4072762;28;20052;-72
2021/12/29 07:08:43;;;;;;;1.08;0.98;;;;;;;6.54;100.00;97377.34;4081204;28;20407;-72
2021/12/29 07:10:45;;;;;;;2.95;1.10;;;;;;;6.56;100.00;97380.50;4078230;28;20428;-71
2021/12/29 07:12:45;;;;;;;1.10;1.00;;;;;;;6.58;100.00;97394.66;4078298;28;20044;-72
2021/12/29 07:14:46;;;;;;;2.05;1.02;;;;;;;6.65;100.00;97393.94;4080399;28;20051;-72
2021/12/29 07:16:49;;;;;;;2.22;1.20;;;;;;;6.57;100.00;97384.84;4072531;28;20060;-72
2021/12/29 07:18:49;;;;;;;;;;;;;;;6.54;100.00;97396.59;4073927;28;20039;-72
2021/12/29 07:20:50;;;;;;;2.03;0.90;;;;;;;6.50;100.00;97393.00;4072772;28;19934;-72
2021/12/29 07:22:50;;;;;;;3.75;1.67;;;;;;;6.56;100.00;97397.00;4073456;28;20522;-72
2021/12/29 07:24:50;;;;;;;1.00;0.90;;;;;;;6.63;100.00;97401.78;4094329;28;20048;-72
2021/12/29 07:26:51;;;;;;;1.00;0.82;;;;;;;6.63;100.00;97404.53;4080636;28;20079;-72
2021/12/29 07:28:52;;;;;;;1.65;0.90;;;;;;;6.58;100.00;97405.66;4078942;28;20113;-72
2021/12/29 07:30:52;;;;;;;1.48;1.00;;;;;;;6.57;100.00;97414.28;4081885;28;20065;-72
2021/12/29 07:32:52;;;;;;;1.50;1.20;;;;;;;6.57;100.00;97420.56;4073367;28;20071;-72
2021/12/29 07:34:53;;;;;;;1.63;0.90;;;;;;;6.53;100.00;97427.97;4072407;28;20411;-72
2021/12/29 07:36:54;;;;;;;1.50;0.95;;;;;;;6.58;100.00;97427.63;4086715;28;20045;-72
2021/12/29 07:38:55;;;;;;;1.10;1.00;;;;;;;6.60;100.00;97436.28;4075958;28;20401;-72
2021/12/29 07:40:56;;;;;;;0.90;0.90;;;;;;;6.63;100.00;97440.25;4078635;28;20126;-72
2021/12/29 07:42:56;;;;;;;2.08;1.10;;;;;;;6.63;100.00;97438.28;4072886;28;20451;-72
2021/12/29 07:44:56;;;;;;;1.15;1.05;;;;;;;6.61;100.00;97445.31;4071801;28;20335;-72
2021/12/29 07:46:59;;;;;;;2.05;1.02;;;;;;;6.58;100.00;97451.59;4077107;28;20083;-72
2021/12/29 07:49:03;;;;;;;1.30;1.20;;;;;;;6.58;100.00;97452.38;4072610;28;20043;-72
2021/12/29 07:51:05;;;;;;;0.82;0.80;;;;;;;6.57;100.00;97456.28;4073310;28;20043;-72
2021/12/29 07:53:06;;;;;;;2.40;1.20;;;;;;;6.62;100.00;97450.47;4071423;28;20083;-71
2021/12/29 07:55:07;;;;;;;1.50;1.40;;;;;;;6.66;100.00;97458.72;4072234;28;20110;-72
2021/12/29 07:57:08;;;;;;;1.45;1.10;;;;;;;6.67;100.00;97455.59;4072163;28;20519;-72
2021/12/29 07:59:08;;;;;;;1.83;1.58;;;;;;;6.67;100.00;97450.09;4072975;28;20137;-72
2021/12/29 08:01:09;;;;;;;1.30;1.00;;;;;;;6.61;100.00;97457.09;4090484;28;20476;-72
2021/12/29 08:03:13;;;;;;;2.83;2.13;;;;;;;6.65;100.00;97449.69;4083141;28;20056;-72
2021/12/29 08:05:14;;;;;;;1.30;1.20;;;;;;;6.63;100.00;97465.00;4083017;28;20430;-72
2021/12/29 08:07:15;;;;;;;1.98;1.40;;;;;;;6.65;100.00;97455.19;4073341;28;20047;-72
2021/12/29 08:09:15;;;;;;;2.63;1.73;;;;;;;6.76;100.00;97464.34;4079449;28;20052;-72
2021/12/29 08:11:18;;;;;;;0.98;0.90;;;;;;;6.78;100.00;97469.44;4084436;28;20051;-72
2021/12/29 08:13:19;;;;;;;1.38;1.20;;;;;;;6.73;100.00;97475.31;4079232;28;20048;-72
2021/12/29 08:15:19;;;;;;;3.08;1.88;;;;;;;6.85;100.00;97485.22;4072648;28;20156;-72
2021/12/29 08:17:20;;;;;;;2.42;1.63;;;;;;;6.88;100.00;97474.28;4074098;28;20118;-72
2021/12/29 08:19:20;;;;;;;3.05;2.20;;;;;;;6.80;100.00;97471.84;4075035;28;20047;-72
2021/12/29 08:21:21;;;;;;;2.38;1.95;;;;;;;6.80;100.00;97488.34;4073641;28;20086;-72
2021/12/29 08:23:21;;;;;;;1.98;1.67;;;;;;;6.72;100.00;97482.75;4075477;28;20090;-72
2021/12/29 08:25:22;;;;;;;1.73;1.30;;;;;;;6.82;100.00;97486.00;4074073;28;20035;-72
2021/12/29 08:27:22;;;;;;;1.40;1.20;;;;;;;6.84;100.00;97478.16;4074979;28;20044;-72
2021/12/29 08:29:23;;;;;;;2.33;1.27;;;;;;;6.83;100.00;97479.31;4074893;28;20546;-72
2021/12/29 08:31:24;;;;;;;1.50;1.38;;;;;;;6.82;100.00;97480.50;4074025;28;20505;-72
2021/12/29 08:33:25;;;;;;;2.67;1.70;;;;;;;6.79;100.00;97490.31;4073896;28;20323;-72
2021/12/29 08:35:27;;;;;;;3.50;2.65;;;;;;;6.88;100.00;97501.78;4073328;28;20074;-72
2021/12/29 08:37:27;;;;;;;2.08;1.70;;;;;;;6.88;100.00;97499.03;4073767;28;20044;-72
2021/12/29 08:39:28;;;;;;;2.08;1.65;;;;;;;6.88;100.00;97501.00;4072906;28;20145;-72
2021/12/29 08:41:28;;;;;;;1.55;1.38;;;;;;;6.93;100.00;97512.41;4075723;28;20071;-72
2021/12/29 08:43:30;;;;;;;2.00;1.38;;;;;;;6.89;100.00;97519.06;4074034;28;20491;-72
2021/12/29 08:45:31;;;;;;;2.50;1.50;;;;;;;6.90;99.94;97521.44;4073161;28;20062;-72
2021/12/29 08:47:32;;;;;;;1.23;1.10;;;;;;;6.95;99.26;97531.28;4074739;28;20105;-72
2021/12/29 08:49:32;;;;;;;1.40;1.27;;;;;;;6.95;99.27;97534.84;4073824;28;20040;-72
2021/12/29 08:51:33;;;;;;;2.15;1.50;;;;;;;6.92;99.13;97532.84;4075034;28;20512;-72
2021/12/29 08:53:37;;;;;;;1.58;1.33;;;;;;;6.88;99.91;97537.53;4070572;28;20063;-72
2021/12/29 08:55:39;;;;;;;1.42;1.23;;;;;;;6.86;99.80;97534.34;4072863;28;20387;-72
2021/12/29 08:57:41;;;;;;;2.72;1.90;;;;;;;6.82;100.00;97541.78;4076160;28;20362;-72
2021/12/29 08:59:42;;;;;;;2.75;2.00;;;;;;;6.89;99.47;97552.84;4079113;28;20043;-72
2021/12/29 09:01:42;;;;;;;2.13;1.92;;;;;;;6.91;98.90;97547.75;4079395;28;20054;-72
2021/12/29 09:03:43;;;;;;;1.60;1.50;;;;;;;6.93;98.91;97545.41;4087764;28;20378;-72
2021/12/29 09:05:43;;;;;;;2.30;1.30;;;;;;;7.04;97.52;97548.31;4082733;28;20047;-72
2021/12/29 09:07:46;;;;;;;2.03;1.27;;;;;;;7.11;96.76;97553.06;4078130;28;20082;-72
2021/12/29 09:09:47;;;;;;;1.45;1.20;;;;;;;7.13;96.44;97553.50;4087838;28;20318;-72
2021/12/29 09:11:47;;;;;;;1.52;1.20;;;;;;;7.22;95.04;97554.78;4080425;28;20499;-72
2021/12/29 09:13:48;;;;;;;1.52;1.10;;;;;;;7.18;95.75;97564.94;4081166;28;20047;-72
2021/12/29 09:15:49;;;;;;;1.73;1.17;;;;;;;7.21;95.35;97564.19;4079166;28;20055;-72
2021/12/29 09:17:50;;;;;;;2.10;1.27;;;;;;;7.25;95.00;97572.47;4075318;28;20059;-72
2021/12/29 09:19:50;;;;;;;2.08;1.38;;;;;;;7.24;95.57;97570.91;4075927;28;20040;-72
2021/12/29 09:21:54;;;;;;;2.90;1.60;;;;;;;7.28;95.38;97574.47;4077708;28;20047;-72
2021/12/29 09:23:55;;;;;;;2.72;2.05;;;;;;;7.23;94.94;97575.59;4075630;28;20127;-72
2021/12/29 09:25:56;;;;;;;5.57;3.15;;;;;;;7.20;95.72;97590.13;4075645;28;20138;-72
2021/12/29 09:27:57;;;;;;;3.33;2.53;;;;;;;7.15;96.30;97592.41;4076239;28;20403;-72
2021/12/29 09:29:58;;;;;;;3.38;2.10;;;;;;;7.13;96.50;97592.81;4074823;28;20058;-72
2021/12/29 09:31:58;;;;;;;1.67;1.52;;;;;;;7.12;97.58;97593.97;4076375;28;20138;-72
2021/12/29 09:33:59;;;;;;;2.35;1.75;;;;;;;7.08;98.02;97593.13;4079142;28;20043;-72
2021/12/29 09:36:02;;;;;;;4.05;2.17;;;;;;;7.12;97.69;97579.44;4076181;28;20056;-72
2021/12/29 09:38:05;;;;;;;2.97;2.00;;;;;;;7.11;97.12;97586.88;4076435;28;20078;-73
2021/12/29 09:40:06;;;;;;;2.33;1.83;;;;;;;7.23;96.37;97585.81;4076301;28;20123;-72
2021/12/29 09:42:07;;;;;;;2.28;1.73;;;;;;;7.24;96.38;97593.69;4075156;28;20043;-72